createdAt,value
2022-08-03T00:01:49.485Z,68.01
2022-08-03T00:04:16.602Z,67.67
2022-08-03T00:06:43.277Z,67.91
2022-08-03T00:09:10.387Z,68.05
2022-08-03T00:11:38.311Z,68.46
2022-08-03T00:14:06.299Z,68.00
2022-08-03T00:16:33.061Z,68.10
2022-08-03T00:19:00.829Z,68.18
2022-08-03T00:21:28.340Z,68.28
2022-08-03T00:23:56.050Z,68.38
2022-08-03T00:26:22.691Z,68.43
2022-08-03T00:28:49.961Z,68.37
2022-08-03T00:31:23.061Z,68.46
2022-08-03T00:34:04.315Z,68.39
2022-08-03T00:36:30.974Z,68.62
2022-08-03T00:38:57.550Z,68.68
2022-08-03T00:41:24.347Z,68.54
2022-08-03T00:43:51.184Z,69.02
2022-08-03T00:46:21.332Z,69.02
2022-08-03T00:48:49.918Z,69.41
2022-08-03T00:51:16.786Z,69.14
2022-08-03T00:53:43.594Z,69.15
2022-08-03T00:56:14.525Z,69.36
2022-08-03T00:58:41.635Z,69.33
2022-08-03T01:01:08.256Z,69.44
2022-08-03T01:03:35.017Z,69.39
2022-08-03T01:06:18.382Z,69.46
2022-08-03T01:08:53.498Z,70.21
2022-08-03T01:11:29.252Z,70.15
2022-08-03T01:14:21.000Z,70.20
2022-08-03T01:17:02.071Z,70.30
2022-08-03T01:19:40.543Z,70.64
2022-08-03T01:22:37.161Z,70.74
2022-08-03T01:25:33.115Z,70.97
2022-08-03T01:28:19.955Z,70.70
2022-08-03T01:30:47.860Z,71.50
2022-08-03T01:33:26.166Z,71.15
2022-08-03T01:36:13.090Z,70.98
2022-08-03T01:38:44.402Z,71.43
2022-08-03T01:41:17.211Z,71.38
2022-08-03T01:44:27.356Z,70.68
2022-08-03T01:46:38.389Z,71.42
2022-08-03T01:49:09.325Z,71.35
2022-08-03T01:51:58.367Z,71.19
2022-08-03T01:54:27.112Z,71.30
2022-08-03T01:56:56.713Z,71.14
2022-08-03T01:59:26.135Z,70.87
2022-08-03T02:02:27.972Z,70.79
2022-08-03T02:04:43.735Z,70.83
2022-08-03T02:07:11.987Z,71.28
2022-08-03T02:09:41.267Z,71.30
2022-08-03T02:12:12.278Z,71.49
2022-08-03T02:14:41.754Z,70.94
2022-08-03T02:17:09.696Z,71.03
2022-08-03T02:19:37.758Z,71.29
2022-08-03T02:22:08.388Z,71.34
2022-08-03T02:24:35.068Z,71.47
2022-08-03T02:27:05.181Z,71.37
2022-08-03T02:29:39.824Z,71.58
2022-08-03T02:32:11.709Z,71.77
2022-08-03T02:34:42.246Z,72.25
2022-08-03T02:37:11.924Z,72.07
2022-08-03T02:39:41.768Z,71.96
2022-08-03T02:42:12.200Z,72.11
2022-08-03T02:44:41.608Z,72.37
2022-08-03T02:47:11.210Z,72.46
2022-08-03T02:49:50.639Z,72.06
2022-08-03T02:52:21.547Z,72.13
2022-08-03T02:54:51.126Z,72.28
2022-08-03T02:57:20.071Z,72.17
2022-08-03T02:59:47.818Z,72.80
2022-08-03T03:02:16.567Z,72.92
2022-08-03T03:05:53.534Z,73.01
2022-08-03T03:07:34.707Z,72.96
2022-08-03T03:10:19.276Z,73.34
2022-08-03T03:12:47.147Z,72.99
2022-08-03T03:15:13.867Z,73.22
2022-08-03T03:17:43.074Z,73.11
2022-08-03T03:20:10.364Z,73.58
2022-08-03T03:22:38.175Z,73.17
2022-08-03T03:25:07.420Z,72.93
2022-08-03T03:27:34.806Z,73.24
2022-08-03T03:30:02.554Z,73.03
2022-08-03T03:32:29.848Z,72.87
2022-08-03T03:34:59.171Z,72.87
2022-08-03T03:37:27.056Z,72.55
2022-08-03T03:39:54.797Z,72.66
2022-08-03T03:42:21.750Z,72.82
2022-08-03T03:44:48.352Z,72.73
2022-08-03T03:47:15.039Z,72.78
2022-08-03T03:49:44.207Z,72.95
2022-08-03T03:52:11.189Z,73.08
2022-08-03T03:54:45.493Z,72.82
2022-08-03T03:57:13.086Z,73.08
2022-08-03T03:59:43.913Z,73.02
2022-08-03T04:02:12.092Z,72.73
2022-08-03T04:04:57.570Z,72.84
2022-08-03T04:07:44.938Z,72.93
2022-08-03T04:10:40.730Z,72.35
2022-08-03T04:13:10.584Z,72.53
2022-08-03T04:15:39.652Z,72.18
2022-08-03T04:18:09.704Z,72.14
2022-08-03T04:20:38.705Z,72.17
2022-08-03T04:23:13.690Z,71.88
2022-08-03T04:25:43.927Z,71.61
2022-08-03T04:28:30.543Z,71.97
2022-08-03T04:30:59.878Z,71.63
2022-08-03T04:33:29.641Z,71.75
2022-08-03T04:36:02.812Z,71.49
2022-08-03T04:38:32.842Z,71.46
2022-08-03T04:41:00.912Z,71.49
2022-08-03T04:43:28.282Z,70.91
2022-08-03T04:45:55.861Z,70.63
2022-08-03T04:48:22.884Z,70.32
2022-08-03T04:50:53.796Z,69.97
2022-08-03T04:53:21.178Z,69.62
2022-08-03T04:55:48.305Z,69.08
2022-08-03T04:58:14.823Z,68.97
2022-08-03T05:00:42.229Z,68.52
2022-08-03T05:03:19.486Z,68.20
2022-08-03T05:05:50.914Z,68.57
2022-08-03T05:08:20.549Z,67.44
2022-08-03T05:10:55.379Z,67.37
2022-08-03T05:13:25.433Z,66.56
2022-08-03T05:15:52.561Z,67.13
2022-08-03T05:18:19.259Z,65.97
2022-08-03T05:20:45.881Z,66.42
2022-08-03T05:23:12.504Z,66.03
2022-08-03T05:25:39.427Z,65.26
2022-08-03T05:28:06.127Z,64.06
2022-08-03T05:30:34.195Z,63.83
2022-08-03T05:33:02.662Z,64.72
2022-08-03T05:36:00.903Z,64.35
2022-08-03T05:38:28.283Z,63.07
2022-08-03T05:41:20.939Z,63.55
2022-08-03T05:43:46.815Z,63.01
2022-08-03T05:46:13.551Z,62.60
2022-08-03T05:48:41.203Z,61.85
2022-08-03T05:51:11.403Z,61.72
2022-08-03T05:53:43.231Z,61.55
2022-08-03T05:56:14.958Z,61.05
2022-08-03T05:58:44.410Z,60.29
2022-08-03T06:01:11.152Z,59.97
2022-08-03T06:03:37.807Z,60.31
2022-08-03T06:06:04.486Z,60.80
2022-08-03T06:08:31.144Z,60.82
2022-08-03T06:10:57.749Z,59.48
2022-08-03T06:13:24.325Z,59.80
2022-08-03T06:15:50.862Z,58.73
2022-08-03T06:18:17.521Z,58.23
2022-08-03T06:20:44.072Z,58.73
2022-08-03T06:23:16.173Z,58.23
2022-08-03T06:25:44.810Z,58.10
2022-08-03T06:28:35.335Z,57.52
2022-08-03T06:31:01.005Z,57.07
2022-08-03T06:34:31.457Z,56.87
2022-08-03T06:36:15.150Z,57.21
2022-08-03T06:38:41.749Z,56.64
2022-08-03T06:41:08.502Z,56.58
2022-08-03T06:43:37.887Z,56.08
2022-08-03T06:46:05.731Z,55.12
2022-08-03T06:48:32.643Z,56.72
2022-08-03T06:50:59.406Z,55.39
2022-08-03T06:53:26.344Z,54.37
2022-08-03T06:55:55.056Z,55.04
2022-08-03T06:58:22.773Z,54.51
2022-08-03T07:00:49.367Z,54.35
2022-08-03T07:03:16.541Z,53.68
2022-08-03T07:05:43.955Z,54.42
2022-08-03T07:08:10.715Z,53.22
2022-08-03T07:10:37.382Z,52.81
2022-08-03T07:13:04.826Z,52.44
2022-08-03T07:15:38.312Z,52.55
2022-08-03T07:18:28.275Z,52.07
2022-08-03T07:20:57.956Z,51.02
2022-08-03T07:23:25.491Z,51.42
2022-08-03T07:25:52.198Z,51.10
2022-08-03T07:28:19.454Z,50.41
2022-08-03T07:30:46.021Z,50.18
2022-08-03T07:33:12.639Z,48.34
2022-08-03T07:35:39.765Z,49.28
2022-08-03T07:38:06.467Z,48.85
2022-08-03T07:40:33.283Z,49.27
2022-08-03T07:43:00.525Z,48.35
2022-08-03T07:45:27.142Z,49.16
2022-08-03T07:47:54.388Z,50.34
2022-08-03T07:50:22.388Z,48.43
2022-08-03T07:52:50.096Z,47.88
2022-08-03T07:55:18.691Z,47.63
2022-08-03T07:57:45.346Z,47.51
2022-08-03T08:00:17.751Z,46.77
2022-08-03T08:02:45.132Z,45.81
2022-08-03T08:05:12.561Z,47.04
2022-08-03T08:07:40.107Z,47.36
2022-08-03T08:10:10.302Z,46.39
2022-08-03T08:12:38.741Z,47.67
2022-08-03T08:15:07.193Z,47.02
2022-08-03T08:17:44.836Z,47.86
2022-08-03T08:20:15.748Z,47.50
2022-08-03T08:22:47.796Z,47.95
2022-08-03T08:25:17.076Z,46.89
2022-08-03T08:28:29.784Z,47.60
2022-08-03T08:30:35.330Z,47.62
2022-08-03T08:33:02.229Z,48.55
2022-08-03T08:35:28.965Z,48.83
2022-08-03T08:37:55.558Z,46.93
2022-08-03T08:40:23.306Z,45.65
2022-08-03T08:42:59.038Z,46.03
2022-08-03T08:45:26.503Z,45.90
2022-08-03T08:48:00.181Z,47.67
2022-08-03T08:50:29.914Z,46.83
2022-08-03T08:53:01.975Z,46.52
2022-08-03T08:55:29.570Z,46.48
2022-08-03T08:58:19.812Z,45.79
2022-08-03T09:00:48.478Z,44.07
2022-08-03T09:03:22.754Z,44.65
2022-08-03T09:05:59.264Z,43.44
2022-08-03T09:08:26.193Z,43.15
2022-08-03T09:10:52.884Z,42.39
2022-08-03T09:13:19.699Z,41.88
2022-08-03T09:16:00.868Z,43.51
2022-08-03T09:18:32.731Z,43.04
2022-08-03T09:21:32.512Z,40.95
2022-08-03T09:24:03.254Z,40.25
2022-08-03T09:26:31.634Z,40.59
2022-08-03T09:29:15.395Z,42.02
2022-08-03T09:31:46.955Z,40.98
2022-08-03T09:34:16.280Z,39.37
2022-08-03T09:36:46.909Z,40.88
2022-08-03T09:39:40.961Z,40.80
2022-08-03T09:42:23.952Z,39.72
2022-08-03T09:44:52.217Z,38.76
2022-08-03T09:47:45.040Z,39.94
2022-08-03T09:50:12.904Z,39.79
2022-08-03T09:52:50.180Z,39.29
2022-08-03T09:56:34.775Z,37.41
2022-08-03T09:58:11.698Z,38.17
2022-08-03T10:00:54.009Z,35.50
2022-08-03T10:03:20.957Z,36.21
2022-08-03T10:05:47.603Z,36.09
2022-08-03T10:08:19.101Z,35.31
2022-08-03T10:10:47.728Z,34.43
2022-08-03T10:13:16.429Z,34.73
2022-08-03T10:16:23.071Z,35.22
2022-08-03T10:18:30.301Z,35.51
2022-08-03T10:21:04.461Z,36.74
2022-08-03T10:23:35.142Z,35.22
2022-08-03T10:26:07.476Z,35.35
2022-08-03T10:28:38.401Z,34.14
2022-08-03T10:31:10.149Z,33.72
2022-08-03T10:33:51.126Z,33.01
2022-08-03T10:36:22.915Z,33.05
2022-08-03T10:38:53.631Z,31.35
2022-08-03T10:41:22.151Z,32.28
2022-08-03T10:43:54.992Z,31.99
2022-08-03T10:46:21.801Z,30.68
2022-08-03T10:48:50.813Z,30.80
2022-08-03T10:51:17.553Z,30.46
2022-08-03T10:53:54.282Z,29.27
2022-08-03T10:56:53.507Z,30.01
2022-08-03T10:59:46.083Z,27.28
2022-08-03T11:02:15.305Z,26.25
2022-08-03T11:04:44.691Z,27.15
2022-08-03T11:07:17.691Z,27.66
2022-08-03T11:09:48.440Z,25.29
2022-08-03T11:12:31.215Z,25.42
2022-08-03T11:15:05.473Z,25.35
2022-08-03T11:17:33.938Z,23.81
2022-08-03T11:20:13.976Z,23.72
2022-08-03T11:22:54.535Z,23.35
2022-08-03T11:25:53.646Z,22.43
2022-08-03T11:28:28.447Z,22.21
2022-08-03T11:30:55.137Z,19.79
2022-08-03T11:33:39.665Z,20.39
2022-08-03T11:36:06.312Z,17.69
2022-08-03T11:38:32.942Z,16.55
2022-08-03T11:41:02.573Z,15.39
2022-08-03T11:43:34.942Z,13.59
2022-08-03T11:46:02.779Z,13.35
2022-08-03T11:48:43.086Z,13.42
2022-08-03T11:51:29.398Z,13.80
2022-08-03T11:54:01.746Z,12.66
2022-08-03T11:56:43.007Z,12.46
2022-08-03T11:59:18.619Z,15.18
2022-08-03T12:01:47.592Z,12.20
2022-08-03T12:04:16.198Z,11.53
2022-08-03T12:06:58.310Z,11.94
2022-08-03T12:09:24.822Z,11.08
2022-08-03T12:11:59.982Z,11.49
2022-08-03T12:14:48.376Z,11.98
2022-08-03T12:17:16.815Z,12.61
2022-08-03T12:19:44.584Z,11.95
2022-08-03T12:22:11.319Z,11.12
2022-08-03T12:24:46.863Z,12.14
2022-08-03T12:27:24.037Z,11.32
2022-08-03T12:29:58.542Z,11.31
2022-08-03T12:32:27.213Z,9.04
2022-08-03T12:34:54.523Z,8.12
2022-08-03T12:37:23.607Z,7.57
2022-08-03T12:40:01.329Z,7.01
2022-08-03T12:42:36.717Z,10.60
2022-08-03T12:45:22.249Z,13.96
2022-08-03T12:48:14.877Z,15.52
2022-08-03T12:50:41.671Z,16.66
2022-08-03T12:53:10.441Z,16.67
2022-08-03T12:55:57.722Z,17.90
2022-08-03T12:58:34.701Z,18.56
2022-08-03T13:01:10.130Z,18.27
2022-08-03T13:03:49.607Z,18.70
2022-08-03T13:06:20.297Z,20.90
2022-08-03T13:08:48.001Z,20.32
2022-08-03T13:11:57.772Z,19.63
2022-08-03T13:14:20.595Z,20.87
2022-08-03T13:16:49.172Z,21.24
2022-08-03T13:19:16.162Z,23.29
2022-08-03T13:22:04.422Z,24.61
2022-08-03T13:24:31.721Z,25.64
2022-08-03T13:26:59.399Z,26.27
2022-08-03T13:29:26.063Z,27.05
2022-08-03T13:31:52.956Z,28.64
2022-08-03T13:34:23.654Z,27.97
2022-08-03T13:37:10.189Z,28.46
2022-08-03T13:39:58.025Z,29.96
2022-08-03T13:42:23.644Z,29.75
2022-08-03T13:44:50.783Z,30.04
2022-08-03T13:47:17.536Z,30.94
2022-08-03T13:49:59.677Z,30.86
2022-08-03T13:52:31.035Z,29.71
2022-08-03T13:54:57.647Z,27.89
2022-08-03T13:58:02.398Z,28.70
2022-08-03T14:00:12.093Z,30.32
2022-08-03T14:02:38.991Z,31.21
2022-08-03T14:05:06.116Z,32.19
2022-08-03T14:07:32.691Z,32.64
2022-08-03T14:09:59.575Z,33.52
2022-08-03T14:12:26.135Z,33.74
2022-08-03T14:14:52.805Z,34.30
2022-08-03T14:17:19.905Z,34.69
2022-08-03T14:19:53.106Z,34.30
2022-08-03T14:22:21.485Z,33.46
2022-08-03T14:24:49.232Z,34.73
2022-08-03T14:27:16.539Z,34.45
2022-08-03T14:29:43.285Z,35.13
2022-08-03T14:32:13.260Z,34.41
2022-08-03T14:34:40.892Z,34.31
2022-08-03T14:37:07.724Z,34.83
2022-08-03T14:42:21.577Z,35.31
2022-08-03T14:44:48.276Z,36.13
2022-08-03T14:47:14.933Z,35.81
2022-08-03T14:50:33.225Z,36.27
2022-08-03T14:52:28.692Z,36.30
2022-08-03T14:54:55.495Z,37.22
2022-08-03T14:57:22.261Z,36.84
2022-08-03T14:59:55.611Z,37.66
2022-08-03T15:02:25.040Z,37.45
2022-08-03T15:04:55.362Z,37.66
2022-08-03T15:07:22.151Z,38.05
2022-08-03T15:09:48.883Z,38.65
2022-08-03T15:12:15.579Z,39.28
2022-08-03T15:14:42.118Z,38.89
2022-08-03T15:17:08.799Z,38.70
2022-08-03T15:20:00.473Z,37.96
2022-08-03T15:22:24.841Z,38.48
2022-08-03T15:24:52.555Z,39.20
2022-08-03T15:27:19.389Z,38.81
2022-08-03T15:30:07.498Z,38.66
2022-08-03T15:32:35.793Z,37.62
2022-08-03T15:35:02.236Z,37.52
2022-08-03T15:37:28.965Z,37.06
2022-08-03T15:39:59.370Z,37.82
2022-08-03T15:42:27.705Z,38.01
2022-08-03T15:44:55.077Z,38.74
2022-08-03T15:47:22.079Z,39.22
2022-08-03T15:49:48.929Z,39.13
2022-08-03T15:52:15.500Z,39.48
2022-08-03T15:54:42.144Z,39.90
2022-08-03T15:57:09.059Z,40.10
2022-08-03T15:59:35.737Z,40.59
2022-08-03T16:02:02.674Z,40.17
2022-08-03T16:04:29.233Z,40.38
2022-08-03T16:06:55.930Z,40.59
2022-08-03T16:09:23.574Z,40.68
2022-08-03T16:12:15.409Z,40.59
2022-08-03T16:14:52.696Z,41.82
2022-08-03T16:17:20.837Z,41.53
2022-08-03T16:19:47.735Z,41.00
2022-08-03T16:22:14.519Z,41.94
2022-08-03T16:24:41.426Z,42.02
2022-08-03T16:27:17.532Z,41.52
2022-08-03T16:29:54.743Z,41.30
2022-08-03T16:32:21.342Z,41.56
2022-08-03T16:34:48.239Z,41.46
2022-08-03T16:37:37.596Z,41.91
2022-08-03T16:40:02.515Z,41.66
2022-08-03T16:42:29.113Z,41.86
2022-08-03T16:44:55.716Z,41.73
2022-08-03T16:47:22.890Z,41.65
2022-08-03T16:49:54.994Z,42.35
2022-08-03T16:52:26.074Z,42.43
2022-08-03T16:54:53.977Z,42.15
2022-08-03T16:57:55.639Z,42.18
2022-08-03T17:00:34.395Z,43.04
2022-08-03T17:03:04.462Z,42.84
2022-08-03T17:05:46.904Z,43.04
2022-08-03T17:08:14.359Z,43.38
2022-08-03T17:10:44.494Z,43.74
2022-08-03T17:13:15.199Z,44.22
2022-08-03T17:15:58.174Z,44.58
2022-08-03T17:18:34.075Z,44.45
2022-08-03T17:21:06.397Z,44.46
2022-08-03T17:23:49.678Z,44.56
2022-08-03T17:26:21.925Z,44.70
2022-08-03T17:28:57.663Z,44.60
2022-08-03T17:31:31.172Z,45.05
2022-08-03T17:34:01.047Z,45.82
2022-08-03T17:36:47.519Z,45.75
2022-08-03T17:39:16.960Z,45.90
2022-08-03T17:44:39.933Z,46.37
2022-08-03T17:47:12.546Z,46.59
2022-08-03T17:49:46.961Z,46.58
2022-08-03T17:52:48.365Z,46.24
2022-08-03T17:55:56.383Z,46.62
2022-08-03T17:58:17.284Z,47.19
2022-08-03T18:02:02.718Z,47.68
2022-08-03T18:03:59.799Z,47.94
2022-08-03T18:06:31.007Z,48.05
2022-08-03T18:09:00.019Z,48.16
2022-08-03T18:11:35.565Z,48.54
2022-08-03T18:14:17.263Z,48.45
2022-08-03T18:16:46.187Z,48.73
2022-08-03T18:19:13.791Z,48.73
2022-08-03T18:22:03.250Z,49.13
2022-08-03T18:24:30.310Z,49.61
2022-08-03T18:26:58.450Z,49.37
2022-08-03T18:29:30.053Z,50.23
2022-08-03T18:32:05.291Z,50.05
2022-08-03T18:34:36.188Z,50.38
2022-08-03T18:37:08.540Z,50.63
2022-08-03T18:39:50.275Z,50.63
2022-08-03T18:42:20.383Z,50.95
2022-08-03T18:44:56.168Z,51.17
2022-08-03T18:47:57.047Z,51.14
2022-08-03T18:50:29.474Z,51.82
2022-08-03T18:53:16.460Z,51.90
2022-08-03T18:56:05.282Z,52.14
2022-08-03T18:58:51.435Z,52.02
2022-08-03T19:01:59.903Z,52.78
2022-08-03T19:04:34.468Z,52.96
2022-08-03T19:07:07.015Z,52.93
2022-08-03T19:09:40.577Z,53.56
2022-08-03T19:12:30.940Z,53.61
2022-08-03T19:15:05.316Z,53.93
2022-08-03T19:17:36.072Z,54.00
2022-08-03T19:20:08.505Z,54.44
2022-08-03T19:22:39.701Z,54.59
2022-08-03T19:25:12.425Z,54.81
2022-08-03T19:27:39.756Z,55.14
2022-08-03T19:30:21.770Z,55.08
2022-08-03T19:32:54.258Z,55.41
2022-08-03T19:35:52.120Z,55.52
2022-08-03T19:38:09.526Z,55.77
2022-08-03T19:40:42.082Z,56.00
2022-08-03T19:43:26.245Z,56.39
2022-08-03T19:46:07.197Z,56.93
2022-08-03T19:48:37.515Z,56.90
2022-08-03T19:51:12.162Z,56.91
2022-08-03T19:53:43.157Z,57.32
2022-08-03T19:56:14.273Z,57.57
2022-08-03T19:58:46.256Z,57.42
2022-08-03T20:01:21.555Z,57.40
2022-08-03T20:03:50.187Z,58.24
2022-08-03T20:06:19.805Z,58.04
2022-08-03T20:08:48.158Z,57.89
2022-08-03T20:11:18.239Z,58.03
2022-08-03T20:13:48.321Z,58.23
2022-08-03T20:16:15.331Z,58.19
2022-08-03T20:18:42.652Z,58.63
2022-08-03T20:21:14.820Z,58.87
2022-08-03T20:26:31.049Z,59.03
2022-08-03T20:29:09.258Z,59.09
2022-08-03T20:31:37.608Z,59.30
2022-08-03T20:34:06.533Z,59.61
2022-08-03T20:36:33.412Z,59.53
2022-08-03T20:39:00.503Z,59.96
2022-08-03T20:41:27.278Z,59.80
2022-08-03T20:43:54.360Z,59.78
2022-08-03T20:46:33.838Z,60.26
2022-08-03T20:49:08.525Z,60.40
2022-08-03T20:51:52.765Z,60.29
2022-08-03T20:54:29.423Z,60.42
2022-08-03T20:57:00.685Z,60.46
2022-08-03T20:59:46.838Z,60.75
2022-08-03T21:02:19.575Z,60.85
2022-08-03T21:04:55.988Z,60.87
2022-08-03T21:07:24.010Z,60.72
2022-08-03T21:09:52.692Z,61.22
2022-08-03T21:12:32.975Z,60.99
2022-08-03T21:12:54.737Z,45.96
2022-08-03T21:13:13.048Z,58.57
2022-08-03T21:15:03.755Z,60.92
2022-08-03T21:17:40.828Z,61.27
2022-08-03T21:20:10.288Z,60.95
2022-08-03T21:22:45.307Z,60.75
2022-08-03T21:25:15.763Z,61.22
2022-08-03T21:27:42.872Z,61.02
2022-08-03T21:30:11.167Z,61.13
2022-08-03T21:32:40.799Z,61.02
2022-08-03T21:35:10.634Z,61.29
2022-08-03T21:37:37.947Z,61.15
2022-08-03T21:40:05.016Z,61.23
2022-08-03T21:42:31.645Z,61.26
2022-08-03T21:44:58.310Z,61.39
2022-08-03T21:47:25.521Z,61.11
2022-08-03T21:50:07.567Z,61.43
2022-08-03T21:52:41.947Z,61.10
2022-08-03T21:55:09.105Z,61.73
2022-08-03T21:57:51.360Z,61.87
2022-08-03T22:00:20.304Z,61.79
2022-08-03T22:02:56.052Z,61.72
2022-08-03T22:05:42.618Z,62.00
2022-08-03T22:08:13.337Z,61.92
2022-08-03T22:10:40.877Z,62.19
2022-08-03T22:13:07.623Z,62.48
2022-08-03T22:15:34.570Z,62.63
2022-08-03T22:18:04.474Z,62.83
2022-08-03T22:20:31.363Z,63.01
2022-08-03T22:23:02.149Z,63.08
2022-08-03T22:25:32.497Z,63.17
2022-08-03T22:28:03.066Z,63.09
2022-08-03T22:30:29.833Z,63.17
2022-08-03T22:32:57.946Z,63.29
2022-08-03T22:35:27.477Z,63.45
2022-08-03T22:37:57.239Z,63.92
2022-08-03T22:40:24.057Z,63.87
2022-08-03T22:42:52.328Z,63.46
2022-08-03T22:46:06.296Z,63.72
2022-08-03T22:48:08.082Z,63.47
2022-08-03T22:50:35.070Z,63.53
2022-08-03T22:53:01.808Z,63.91
2022-08-03T22:55:28.594Z,63.97
2022-08-03T22:57:55.734Z,64.18
2022-08-03T23:00:23.629Z,64.20
2022-08-03T23:02:53.773Z,64.33
2022-08-03T23:06:00.840Z,64.44
2022-08-03T23:08:15.383Z,64.46
2022-08-03T23:10:46.766Z,64.43
2022-08-03T23:13:16.458Z,64.67
2022-08-03T23:15:50.793Z,64.83
2022-08-03T23:18:20.861Z,64.84
2022-08-03T23:20:51.449Z,64.71
2022-08-03T23:23:19.944Z,64.99
2022-08-03T23:25:49.685Z,64.88
2022-08-03T23:28:17.353Z,65.11
2022-08-03T23:30:44.738Z,65.36
2022-08-03T23:33:15.991Z,65.52
2022-08-03T23:36:28.182Z,65.68
2022-08-03T23:38:46.232Z,66.11
2022-08-03T23:41:14.808Z,65.94
2022-08-03T23:43:52.449Z,66.13
2022-08-03T23:46:27.404Z,66.35
2022-08-03T23:48:56.399Z,65.91
2022-08-03T23:51:45.383Z,66.10
2022-08-03T23:54:37.760Z,66.10
2022-08-03T23:57:16.446Z,66.14
